createdAt,value
2023-01-26T00:02:19.395Z,96590.97
2023-01-26T00:04:45.866Z,96589.38
2023-01-26T00:07:12.394Z,96587.16
2023-01-26T00:09:38.887Z,96583.78
2023-01-26T00:12:05.562Z,96579.28
2023-01-26T00:14:49.974Z,96580.44
2023-01-26T00:17:25.931Z,96589.78
2023-01-26T00:19:54.073Z,96584.63
2023-01-26T00:22:20.821Z,96582.63
2023-01-26T00:24:47.393Z,96582.94
2023-01-26T00:27:13.918Z,96579.41
2023-01-26T00:29:40.427Z,96582.19
2023-01-26T00:32:06.909Z,96583.69
2023-01-26T00:34:33.472Z,96583.97
2023-01-26T00:36:59.971Z,96584.53
2023-01-26T00:39:26.499Z,96583.19
2023-01-26T00:42:09.994Z,96580.03
2023-01-26T00:44:37.806Z,96580.22
2023-01-26T00:47:05.269Z,96582.03
2023-01-26T00:49:31.852Z,96579.41
2023-01-26T00:51:58.386Z,96579.41
2023-01-26T00:54:24.885Z,96578.34
2023-01-26T00:56:51.399Z,96576.56
2023-01-26T00:59:17.895Z,96582.75
2023-01-26T01:01:44.759Z,96575.81
2023-01-26T01:04:11.272Z,96570.03
2023-01-26T01:06:37.801Z,96568.25
2023-01-26T01:09:04.480Z,96569.94
2023-01-26T01:11:30.980Z,96570.31
2023-01-26T01:13:57.697Z,96557.97
2023-01-26T01:16:24.275Z,96565.53
2023-01-26T01:18:56.792Z,96562.81
2023-01-26T01:21:24.058Z,96562.19
2023-01-26T01:23:50.553Z,96564.25
2023-01-26T01:26:17.373Z,96557.00
2023-01-26T01:28:44.200Z,96562.81
2023-01-26T01:31:12.834Z,96553.28
2023-01-26T01:33:39.468Z,96557.66
2023-01-26T01:39:52.875Z,96547.94
2023-01-26T01:42:20.108Z,96554.38
2023-01-26T01:45:06.566Z,96549.13
2023-01-26T01:47:33.093Z,96553.34
2023-01-26T01:49:59.599Z,96545.59
2023-01-26T01:52:28.986Z,96542.13
2023-01-26T01:55:07.433Z,96544.28
2023-01-26T01:57:47.102Z,96538.59
2023-01-26T02:00:18.684Z,96544.97
2023-01-26T02:03:06.267Z,96537.94
2023-01-26T02:05:34.147Z,96538.47
2023-01-26T02:08:01.713Z,96537.47
2023-01-26T02:10:28.809Z,96528.88
2023-01-26T02:12:56.823Z,96534.28
2023-01-26T02:15:23.610Z,96525.38
2023-01-26T02:17:53.535Z,96525.75
2023-01-26T02:20:20.035Z,96523.34
2023-01-26T02:22:55.498Z,96525.31
2023-01-26T02:25:21.979Z,96518.78
2023-01-26T02:27:49.004Z,96510.28
2023-01-26T02:30:16.175Z,96512.16
2023-01-26T02:32:42.735Z,96505.69
2023-01-26T02:35:09.392Z,96504.75
2023-01-26T02:37:36.060Z,96492.69
2023-01-26T02:40:06.983Z,96492.69
2023-01-26T02:42:39.467Z,96487.22
2023-01-26T02:45:06.669Z,96483.47
2023-01-26T02:47:33.184Z,96477.19
2023-01-26T02:50:00.700Z,96478.78
2023-01-26T02:52:29.540Z,96470.91
2023-01-26T02:55:14.516Z,96470.06
2023-01-26T02:57:41.314Z,96457.03
2023-01-26T03:00:09.875Z,96460.41
2023-01-26T03:02:36.538Z,96465.88
2023-01-26T03:05:04.742Z,96460.63
2023-01-26T03:07:31.443Z,96459.88
2023-01-26T03:10:00.704Z,96453.91
2023-01-26T03:12:27.588Z,96449.59
2023-01-26T03:15:12.867Z,96444.47
2023-01-26T03:17:39.418Z,96441.84
2023-01-26T03:20:25.208Z,96446.22
2023-01-26T03:23:10.177Z,96436.38
2023-01-26T03:25:55.624Z,96437.22
2023-01-26T03:28:22.558Z,96439.72
2023-01-26T03:30:49.979Z,96431.56
2023-01-26T03:33:17.239Z,96430.63
2023-01-26T03:35:43.889Z,96433.16
2023-01-26T03:38:10.490Z,96422.78
2023-01-26T03:40:55.349Z,96422.47
2023-01-26T03:43:40.774Z,96423.41
2023-01-26T03:46:26.225Z,96414.81
2023-01-26T03:49:11.399Z,96420.16
2023-01-26T03:51:56.397Z,96410.72
2023-01-26T03:54:41.565Z,96408.38
2023-01-26T03:57:08.138Z,96405.47
2023-01-26T03:59:40.753Z,96399.56
2023-01-26T04:02:30.536Z,96398.84
2023-01-26T04:05:15.742Z,96398.00
2023-01-26T04:08:00.721Z,96387.63
2023-01-26T04:10:27.800Z,96389.59
2023-01-26T04:13:12.921Z,96385.81
2023-01-26T04:15:58.046Z,96383.75
2023-01-26T04:18:43.136Z,96381.97
2023-01-26T04:21:28.158Z,96392.47
2023-01-26T04:23:58.248Z,96379.44
2023-01-26T04:26:26.185Z,96377.19
2023-01-26T04:28:52.772Z,96376.25
2023-01-26T04:31:19.395Z,96371.56
2023-01-26T04:33:46.055Z,96362.88
2023-01-26T04:36:12.583Z,96366.44
2023-01-26T04:38:39.038Z,96362.88
2023-01-26T04:41:05.565Z,96363.69
2023-01-26T04:43:32.123Z,96360.88
2023-01-26T04:46:02.330Z,96350.91
2023-01-26T04:48:29.296Z,96354.78
2023-01-26T04:50:57.077Z,96352.38
2023-01-26T04:53:23.860Z,96357.97
2023-01-26T04:55:50.507Z,96355.72
2023-01-26T04:58:17.193Z,96363.69
2023-01-26T05:00:44.090Z,96353.22
2023-01-26T05:03:10.610Z,96352.81
2023-01-26T05:05:38.038Z,96355.84
2023-01-26T05:08:05.139Z,96350.53
2023-01-26T05:10:31.767Z,96351.25
2023-01-26T05:12:58.363Z,96359.63
2023-01-26T05:15:24.977Z,96355.63
2023-01-26T05:17:51.501Z,96352.19
2023-01-26T05:20:18.129Z,96344.53
2023-01-26T05:22:44.702Z,96345.75
2023-01-26T05:25:11.219Z,96345.69
2023-01-26T05:27:37.792Z,96348.31
2023-01-26T05:30:04.572Z,96345.56
2023-01-26T05:32:31.518Z,96345.13
2023-01-26T05:34:58.153Z,96351.84
2023-01-26T05:37:25.975Z,96349.97
2023-01-26T05:39:52.826Z,96345.69
2023-01-26T05:42:19.504Z,96342.13
2023-01-26T05:44:46.027Z,96348.41
2023-01-26T05:47:12.706Z,96342.41
2023-01-26T05:49:42.861Z,96338.97
2023-01-26T05:52:10.849Z,96342.34
2023-01-26T05:54:37.519Z,96344.09
2023-01-26T05:57:04.170Z,96338.97
2023-01-26T05:59:30.694Z,96338.22
2023-01-26T06:01:58.191Z,96338.97
2023-01-26T06:04:25.151Z,96340.66
2023-01-26T06:06:58.857Z,96344.59
2023-01-26T06:09:27.398Z,96347.81
2023-01-26T06:11:54.230Z,96345.75
2023-01-26T06:14:20.711Z,96345.84
2023-01-26T06:16:47.598Z,96344.19
2023-01-26T06:19:14.274Z,96347.44
2023-01-26T06:21:40.769Z,96344.72
2023-01-26T06:24:07.583Z,96341.47
2023-01-26T06:26:34.136Z,96338.94
2023-01-26T06:29:00.777Z,96342.31
2023-01-26T06:31:29.796Z,96346.19
2023-01-26T06:33:56.540Z,96347.22
2023-01-26T06:36:23.286Z,96333.63
2023-01-26T06:38:51.224Z,96334.44
2023-01-26T06:41:17.780Z,96337.50
2023-01-26T06:43:45.556Z,96336.97
2023-01-26T06:46:12.804Z,96331.72
2023-01-26T06:48:39.472Z,96330.78
2023-01-26T06:51:18.087Z,96335.19
2023-01-26T06:53:48.374Z,96332.88
2023-01-26T06:56:15.104Z,96339.78
2023-01-26T06:58:41.599Z,96334.84
2023-01-26T07:01:10.015Z,96341.66
2023-01-26T07:03:36.555Z,96328.88
2023-01-26T07:06:03.131Z,96325.75
2023-01-26T07:08:29.683Z,96334.66
2023-01-26T07:10:56.190Z,96329.53
2023-01-26T07:13:22.677Z,96332.03
2023-01-26T07:15:49.208Z,96332.88
2023-01-26T07:18:15.696Z,96331.19
2023-01-26T07:20:42.239Z,96325.00
2023-01-26T07:23:08.736Z,96327.63
2023-01-26T07:25:35.285Z,96324.06
2023-01-26T07:28:01.770Z,96327.22
2023-01-26T07:30:28.312Z,96332.25
2023-01-26T07:32:54.814Z,96326.91
2023-01-26T07:35:21.350Z,96332.03
2023-01-26T07:37:47.863Z,96323.03
2023-01-26T07:40:14.652Z,96322.31
2023-01-26T07:42:41.170Z,96322.16
2023-01-26T07:45:07.799Z,96319.47
2023-01-26T07:47:35.979Z,96332.97
2023-01-26T07:50:02.550Z,96326.47
2023-01-26T07:52:29.160Z,96329.94
2023-01-26T07:54:55.632Z,96336.22
2023-01-26T07:57:22.171Z,96329.09
2023-01-26T07:59:48.699Z,96334.66
2023-01-26T08:02:15.203Z,96330.34
2023-01-26T08:04:41.721Z,96333.31
2023-01-26T08:07:08.279Z,96336.13
2023-01-26T08:09:36.075Z,96334.56
2023-01-26T08:12:02.632Z,96338.56
2023-01-26T08:14:41.659Z,96340.03
2023-01-26T08:17:12.615Z,96339.50
2023-01-26T08:19:39.075Z,96345.88
2023-01-26T08:22:05.594Z,96342.22
2023-01-26T08:24:32.123Z,96340.97
2023-01-26T08:26:58.605Z,96338.63
2023-01-26T08:29:25.155Z,96339.59
2023-01-26T08:31:51.770Z,96343.59
2023-01-26T08:34:18.375Z,96344.94
2023-01-26T08:36:44.901Z,96344.94
2023-01-26T08:39:11.384Z,96341.63
2023-01-26T08:41:38.314Z,96348.50
2023-01-26T08:44:04.883Z,96343.16
2023-01-26T08:46:31.363Z,96344.13
2023-01-26T08:49:00.224Z,96340.34
2023-01-26T08:51:26.986Z,96336.03
2023-01-26T08:53:54.766Z,96337.72
2023-01-26T08:56:21.335Z,96336.75
2023-01-26T08:58:48.246Z,96341.19
2023-01-26T09:01:15.620Z,96343.38
2023-01-26T09:03:42.221Z,96331.31
2023-01-26T09:06:09.962Z,96337.41
2023-01-26T09:08:36.475Z,96339.41
2023-01-26T09:11:05.141Z,96338.47
2023-01-26T09:13:31.649Z,96342.53
2023-01-26T09:15:58.318Z,96346.31
2023-01-26T09:18:24.880Z,96345.69
2023-01-26T09:20:51.565Z,96351.56
2023-01-26T09:23:18.322Z,96351.38
2023-01-26T09:25:45.107Z,96342.75
2023-01-26T09:28:11.611Z,96344.63
2023-01-26T09:30:38.245Z,96343.41
2023-01-26T09:33:05.766Z,96339.81
2023-01-26T09:35:32.311Z,96345.81
2023-01-26T09:37:59.107Z,96344.75
2023-01-26T09:40:46.162Z,96354.31
2023-01-26T09:43:25.538Z,96347.38
2023-01-26T09:46:15.419Z,96351.34
2023-01-26T09:48:45.022Z,96350.09
2023-01-26T09:51:19.724Z,96341.19
2023-01-26T09:54:06.782Z,96336.25
2023-01-26T09:56:35.144Z,96333.22
2023-01-26T09:59:07.477Z,96327.03
2023-01-26T10:01:39.102Z,96326.41
2023-01-26T10:04:25.985Z,96323.03
2023-01-26T10:06:53.710Z,96316.63
2023-01-26T10:09:24.176Z,96315.69
2023-01-26T10:11:56.407Z,96306.69
2023-01-26T10:14:22.918Z,96300.41
2023-01-26T10:16:51.636Z,96299.94
2023-01-26T10:19:36.906Z,96303.50
2023-01-26T10:22:11.499Z,96296.06
2023-01-26T10:24:38.604Z,96287.13
2023-01-26T10:27:10.418Z,96282.72
2023-01-26T10:29:36.956Z,96281.69
2023-01-26T10:32:03.867Z,96276.03
2023-01-26T10:34:31.604Z,96278.16
2023-01-26T10:37:30.377Z,96276.28
2023-01-26T10:40:07.601Z,96259.91
2023-01-26T10:42:35.845Z,96259.06
2023-01-26T10:45:04.600Z,96256.13
2023-01-26T10:47:31.346Z,96256.31
2023-01-26T10:50:21.205Z,96256.53
2023-01-26T10:52:58.439Z,96252.00
2023-01-26T10:55:25.112Z,96244.53
2023-01-26T10:57:51.953Z,96246.84
2023-01-26T11:00:21.751Z,96238.06
2023-01-26T11:02:53.200Z,96239.63
2023-01-26T11:05:26.372Z,96239.94
2023-01-26T11:08:00.537Z,96238.88
2023-01-26T11:10:27.307Z,96226.41
2023-01-26T11:13:08.198Z,96228.63
2023-01-26T11:15:39.626Z,96222.44
2023-01-26T11:18:13.331Z,96225.06
2023-01-26T11:20:58.578Z,96230.13
2023-01-26T11:23:25.116Z,96218.69
2023-01-26T11:26:00.894Z,96220.06
2023-01-26T11:28:42.017Z,96210.63
2023-01-26T11:31:30.693Z,96211.53
2023-01-26T11:34:03.114Z,96194.56
2023-01-26T11:36:29.590Z,96204.13
2023-01-26T11:39:15.064Z,96199.06
2023-01-26T11:41:41.653Z,96186.25
2023-01-26T11:44:20.400Z,96181.13
2023-01-26T11:46:46.878Z,96188.00
2023-01-26T11:49:16.537Z,96175.53
2023-01-26T11:51:57.067Z,96176.56
2023-01-26T11:54:29.924Z,96174.06
2023-01-26T11:56:59.822Z,96170.41
2023-01-26T11:59:36.762Z,96175.94
2023-01-26T12:02:18.551Z,96173.09
2023-01-26T12:04:47.000Z,96167.25
2023-01-26T12:07:18.076Z,96165.56
2023-01-26T12:09:46.945Z,96163.06
2023-01-26T12:12:19.391Z,96166.72
2023-01-26T12:15:21.296Z,96156.66
2023-01-26T12:17:56.814Z,96153.41
2023-01-26T12:20:29.148Z,96143.03
2023-01-26T12:23:00.766Z,96135.03
2023-01-26T12:25:30.080Z,96138.31
2023-01-26T12:28:12.546Z,96132.00
2023-01-26T12:30:45.301Z,96140.09
2023-01-26T12:33:12.216Z,96129.09
2023-01-26T12:35:44.866Z,96132.03
2023-01-26T12:38:18.295Z,96133.91
2023-01-26T12:40:50.863Z,96124.66
2023-01-26T12:43:17.352Z,96124.09
2023-01-26T12:45:46.835Z,96126.44
2023-01-26T12:48:13.383Z,96124.03
2023-01-26T12:50:42.820Z,96114.94
2023-01-26T12:53:12.391Z,96115.66
2023-01-26T12:55:56.751Z,96119.84
2023-01-26T12:58:34.553Z,96112.28
2023-01-26T13:01:06.074Z,96117.53
2023-01-26T13:03:35.506Z,96117.63
2023-01-26T13:06:11.303Z,96110.59
2023-01-26T13:08:37.828Z,96116.91
2023-01-26T13:11:06.701Z,96113.44
2023-01-26T13:13:52.039Z,96109.78
2023-01-26T13:16:18.512Z,96109.47
2023-01-26T13:19:03.761Z,96112.97
2023-01-26T13:21:39.341Z,96098.47
2023-01-26T13:24:17.861Z,96109.38
2023-01-26T13:26:45.814Z,96109.06
2023-01-26T13:29:33.344Z,96102.31
2023-01-26T13:32:08.692Z,96104.59
2023-01-26T13:34:46.941Z,96105.75
2023-01-26T13:37:17.467Z,96105.03
2023-01-26T13:39:46.340Z,96103.59
2023-01-26T13:42:28.617Z,96110.19
2023-01-26T13:45:00.814Z,96105.81
2023-01-26T13:47:36.074Z,96099.72
2023-01-26T13:50:21.034Z,96103.41
2023-01-26T13:52:48.076Z,96104.06
2023-01-26T13:55:34.862Z,96099.50
2023-01-26T13:58:11.922Z,96100.56
2023-01-26T14:00:38.514Z,96098.47
2023-01-26T14:03:05.117Z,96093.69
2023-01-26T14:05:32.332Z,96100.97
2023-01-26T14:07:59.732Z,96096.56
2023-01-26T14:10:27.989Z,96094.47
2023-01-26T14:12:58.877Z,96098.34
2023-01-26T14:15:27.149Z,96098.34
2023-01-26T14:17:58.901Z,96114.78
2023-01-26T14:20:33.027Z,96114.31
2023-01-26T14:23:13.753Z,96116.69
2023-01-26T14:25:49.129Z,96116.25
2023-01-26T14:28:16.724Z,96114.03
2023-01-26T14:30:43.541Z,96116.44
2023-01-26T14:33:14.372Z,96112.13
2023-01-26T14:35:41.786Z,96127.13
2023-01-26T14:38:11.298Z,96122.94
2023-01-26T14:40:45.457Z,96114.47
2023-01-26T14:43:13.101Z,96117.28
2023-01-26T14:45:43.582Z,96123.16
2023-01-26T14:48:12.684Z,96115.81
2023-01-26T14:50:39.842Z,96124.84
2023-01-26T14:53:16.232Z,96115.31
2023-01-26T14:55:44.199Z,96112.69
2023-01-26T14:58:33.260Z,96116.69
2023-01-26T15:01:00.863Z,96108.19
2023-01-26T15:03:34.718Z,96113.78
2023-01-26T15:06:13.303Z,96106.13
2023-01-26T15:08:40.807Z,96109.47
2023-01-26T15:11:26.251Z,96114.72
2023-01-26T15:13:54.219Z,96113.97
2023-01-26T15:16:24.870Z,96114.59
2023-01-26T15:18:58.479Z,96113.31
2023-01-26T15:21:32.773Z,96120.66
2023-01-26T15:23:59.610Z,96119.59
2023-01-26T15:26:27.828Z,96120.88
2023-01-26T15:28:55.353Z,96121.09
2023-01-26T15:31:25.575Z,96126.00
2023-01-26T15:33:53.276Z,96122.66
2023-01-26T15:36:22.866Z,96121.72
2023-01-26T15:38:49.448Z,96129.34
2023-01-26T15:41:16.080Z,96133.13
2023-01-26T15:43:42.575Z,96124.78
2023-01-26T15:46:10.255Z,96134.53
2023-01-26T15:48:36.915Z,96128.47
2023-01-26T15:51:03.422Z,96134.00
2023-01-26T15:53:29.996Z,96142.63
2023-01-26T15:55:58.585Z,96134.53
2023-01-26T15:58:25.868Z,96138.94
2023-01-26T16:00:53.452Z,96122.47
2023-01-26T16:03:20.685Z,96136.63
2023-01-26T16:05:48.121Z,96135.81
2023-01-26T16:08:15.336Z,96140.19
2023-01-26T16:10:42.166Z,96136.41
2023-01-26T16:13:10.094Z,96127.41
2023-01-26T16:15:42.137Z,96133.38
2023-01-26T16:18:08.888Z,96141.00
2023-01-26T16:20:36.847Z,96136.63
2023-01-26T16:23:03.794Z,96136.09
2023-01-26T16:25:30.905Z,96138.19
2023-01-26T16:27:59.511Z,96148.38
2023-01-26T16:30:26.468Z,96136.31
2023-01-26T16:32:53.247Z,96139.69
2023-01-26T16:35:21.113Z,96137.56
2023-01-26T16:37:47.752Z,96137.38
2023-01-26T16:40:15.565Z,96132.13
2023-01-26T16:42:44.483Z,96131.16
2023-01-26T16:45:15.513Z,96134.75
2023-01-26T16:47:42.326Z,96134.94
2023-01-26T16:50:09.202Z,96139.34
2023-01-26T16:52:35.970Z,96135.16
2023-01-26T16:55:02.504Z,96129.09
2023-01-26T16:57:28.993Z,96136.44
2023-01-26T16:59:55.581Z,96133.81
2023-01-26T17:02:24.854Z,96132.88
2023-01-26T17:04:51.562Z,96124.38
2023-01-26T17:07:18.100Z,96126.06
2023-01-26T17:09:44.574Z,96126.91
2023-01-26T17:12:11.673Z,96127.84
2023-01-26T17:14:38.236Z,96126.06
2023-01-26T17:17:05.051Z,96128.47
2023-01-26T17:19:31.590Z,96131.44
2023-01-26T17:21:58.116Z,96133.63
2023-01-26T17:24:24.740Z,96132.66
2023-01-26T17:26:51.319Z,96124.28
2023-01-26T17:29:17.809Z,96135.16
2023-01-26T17:31:44.767Z,96131.84
2023-01-26T17:34:11.344Z,96139.88
2023-01-26T17:36:37.871Z,96134.03
2023-01-26T17:39:04.664Z,96141.03
2023-01-26T17:41:31.166Z,96139.69
2023-01-26T17:43:57.693Z,96145.97
2023-01-26T17:46:24.190Z,96143.59
2023-01-26T17:48:51.057Z,96139.69
2023-01-26T17:51:18.887Z,96140.53
2023-01-26T17:53:46.898Z,96145.88
2023-01-26T17:56:14.580Z,96141.50
2023-01-26T17:58:41.722Z,96142.22
2023-01-26T18:01:09.309Z,96139.28
2023-01-26T18:03:39.647Z,96147.97
2023-01-26T18:06:06.268Z,96141.16
2023-01-26T18:08:32.742Z,96139.59
2023-01-26T18:11:03.095Z,96147.78
2023-01-26T18:13:30.294Z,96141.91
2023-01-26T18:15:56.865Z,96151.66
2023-01-26T18:18:23.988Z,96148.31
2023-01-26T18:20:50.508Z,96140.44
2023-01-26T18:23:17.096Z,96146.50
2023-01-26T18:25:44.572Z,96141.28
2023-01-26T18:28:11.594Z,96148.31
2023-01-26T18:30:42.673Z,96139.72
2023-01-26T18:33:09.518Z,96147.47
2023-01-26T18:35:36.098Z,96140.44
2023-01-26T18:38:03.307Z,96135.94
2023-01-26T18:40:30.722Z,96142.84
2023-01-26T18:42:57.336Z,96140.03
2023-01-26T18:45:23.959Z,96147.78
2023-01-26T18:47:50.485Z,96143.38
2023-01-26T18:50:17.489Z,96139.81
2023-01-26T18:52:44.073Z,96137.06
2023-01-26T18:55:11.693Z,96136.25
2023-01-26T18:57:38.507Z,96137.91
2023-01-26T19:00:06.374Z,96135.28
2023-01-26T19:02:33.818Z,96131.22
2023-01-26T19:05:00.587Z,96135.94
2023-01-26T19:07:27.101Z,96132.47
2023-01-26T19:09:53.591Z,96128.81
2023-01-26T19:12:20.126Z,96125.97
2023-01-26T19:14:46.628Z,96119.69
2023-01-26T19:17:13.144Z,96125.56
2023-01-26T19:19:41.208Z,96123.69
2023-01-26T19:22:07.931Z,96130.56
2023-01-26T19:24:34.578Z,96126.19
2023-01-26T19:27:01.531Z,96128.81
2023-01-26T19:29:28.534Z,96127.22
2023-01-26T19:31:55.241Z,96121.06
2023-01-26T19:34:21.793Z,96127.94
2023-01-26T19:36:48.548Z,96126.19
2023-01-26T19:39:15.245Z,96131.53
2023-01-26T19:41:42.068Z,96132.47
2023-01-26T19:44:08.715Z,96121.34
2023-01-26T19:46:35.303Z,96119.78
2023-01-26T19:49:01.849Z,96119.69
2023-01-26T19:51:29.475Z,96116.22
2023-01-26T19:53:57.568Z,96115.28
2023-01-26T19:56:25.640Z,96112.56
2023-01-26T19:58:53.417Z,96118.75
2023-01-26T20:01:20.927Z,96119.56
2023-01-26T20:03:55.350Z,96109.81
2023-01-26T20:06:24.411Z,96109.59
2023-01-26T20:08:51.203Z,96116.75
2023-01-26T20:11:18.025Z,96118.84
2023-01-26T20:13:44.591Z,96118.97
2023-01-26T20:16:12.289Z,96115.28
2023-01-26T20:18:38.790Z,96116.34
2023-01-26T20:21:07.300Z,96114.66
2023-01-26T20:23:34.421Z,96114.66
2023-01-26T20:26:02.218Z,96118.09
2023-01-26T20:28:28.814Z,96113.84
2023-01-26T20:30:59.248Z,96117.41
2023-01-26T20:33:25.808Z,96120.22
2023-01-26T20:35:52.320Z,96117.69
2023-01-26T20:38:18.809Z,96118.31
2023-01-26T20:40:45.302Z,96108.38
2023-01-26T20:43:11.945Z,96113.84
2023-01-26T20:45:39.810Z,96117.63
2023-01-26T20:48:06.414Z,96111.63
2023-01-26T20:50:40.108Z,96112.56
2023-01-26T20:53:07.398Z,96114.34
2023-01-26T20:55:34.441Z,96113.41
2023-01-26T20:58:01.349Z,96111.31
2023-01-26T21:00:27.943Z,96105.22
2023-01-26T21:02:54.514Z,96104.00
2023-01-26T21:05:21.111Z,96113.84
2023-01-26T21:07:47.581Z,96106.91
2023-01-26T21:10:14.456Z,96105.69
2023-01-26T21:12:41.096Z,96104.94
2023-01-26T21:15:07.933Z,96107.97
2023-01-26T21:17:34.468Z,96104.63
2023-01-26T21:20:01.036Z,96106.50
2023-01-26T21:22:27.555Z,96110.91
2023-01-26T21:24:54.119Z,96104.22
2023-01-26T21:27:20.614Z,96097.41
2023-01-26T21:29:47.097Z,96096.88
2023-01-26T21:32:13.668Z,96099.72
2023-01-26T21:34:40.245Z,96097.19
2023-01-26T21:37:06.720Z,96093.75
2023-01-26T21:39:33.259Z,96087.63
2023-01-26T21:42:00.765Z,96094.56
2023-01-26T21:44:31.494Z,96094.88
2023-01-26T21:46:59.890Z,96100.50
2023-01-26T21:49:28.525Z,96098.97
2023-01-26T21:52:13.733Z,96101.25
2023-01-26T21:54:40.252Z,96104.00
2023-01-26T21:57:27.864Z,96098.16
2023-01-26T21:59:54.733Z,96099.91
2023-01-26T22:02:21.941Z,96097.50
2023-01-26T22:04:48.468Z,96100.13
2023-01-26T22:07:14.960Z,96096.88
2023-01-26T22:09:41.491Z,96098.97
2023-01-26T22:12:08.233Z,96104.84
2023-01-26T22:14:34.686Z,96099.59
2023-01-26T22:17:01.182Z,96096.66
2023-01-26T22:19:28.298Z,96096.56
2023-01-26T22:21:54.783Z,96093.63
2023-01-26T22:24:21.285Z,96093.09
2023-01-26T22:26:48.639Z,96097.50
2023-01-26T22:29:15.175Z,96089.03
2023-01-26T22:31:41.983Z,96096.69
2023-01-26T22:34:10.597Z,96092.78
2023-01-26T22:36:37.152Z,96097.47
2023-01-26T22:39:03.755Z,96097.41
2023-01-26T22:41:30.742Z,96093.31
2023-01-26T22:43:58.466Z,96096.69
2023-01-26T22:46:26.496Z,96092.06
2023-01-26T22:48:53.425Z,96094.38
2023-01-26T22:51:21.326Z,96097.19
2023-01-26T22:53:49.097Z,96089.56
2023-01-26T22:56:16.046Z,96098.34
2023-01-26T22:58:56.990Z,96096.25
2023-01-26T23:01:25.040Z,96093.00
2023-01-26T23:03:52.843Z,96088.19
2023-01-26T23:06:19.526Z,96079.72
2023-01-26T23:08:46.115Z,96088.00
2023-01-26T23:11:20.385Z,96088.19
2023-01-26T23:13:48.101Z,96084.00
2023-01-26T23:16:15.201Z,96082.34
2023-01-26T23:18:42.045Z,96075.63
2023-01-26T23:21:08.971Z,96081.47
2023-01-26T23:23:35.475Z,96079.31
2023-01-26T23:26:02.464Z,96083.78
2023-01-26T23:28:33.796Z,96086.41
2023-01-26T23:31:00.458Z,96082.84
2023-01-26T23:33:28.356Z,96068.84
2023-01-26T23:35:55.309Z,96076.56
2023-01-26T23:38:23.034Z,96067.78
2023-01-26T23:40:50.055Z,96072.47
2023-01-26T23:43:17.542Z,96069.44
2023-01-26T23:45:45.251Z,96066.31
2023-01-26T23:48:12.104Z,96065.78
2023-01-26T23:50:38.845Z,96064.44
2023-01-26T23:53:05.391Z,96055.84
2023-01-26T23:55:31.954Z,96064.75
2023-01-26T23:57:58.522Z,96060.66
